createdAt,value
2023-02-24T00:03:46.460Z,97633.63
2023-02-24T00:08:48.316Z,97628.22
2023-02-24T00:13:50.073Z,97622.88
2023-02-24T00:18:51.816Z,97630.28
2023-02-24T00:23:53.793Z,97625.91
2023-02-24T00:28:57.090Z,97624.84
2023-02-24T00:34:00.447Z,97615.06
2023-02-24T00:39:11.194Z,97617.28
2023-02-24T00:44:14.770Z,97619.81
2023-02-24T00:49:19.051Z,97612.75
2023-02-24T00:54:21.327Z,97614.25
2023-02-24T00:59:24.175Z,97601.78
2023-02-24T01:04:29.394Z,97602.06
2023-02-24T01:09:32.197Z,97596.66
2023-02-24T01:14:35.668Z,97598.56
2023-02-24T01:19:37.439Z,97595.84
2023-02-24T01:24:43.387Z,97587.81
2023-02-24T01:29:46.705Z,97583.75
2023-02-24T01:34:52.229Z,97585.78
2023-02-24T01:39:54.387Z,97583.50
2023-02-24T01:45:06.168Z,97576.16
2023-02-24T01:50:10.253Z,97565.19
2023-02-24T01:55:31.676Z,97567.34
2023-02-24T02:00:45.020Z,97551.06
2023-02-24T02:05:51.755Z,97546.22
2023-02-24T02:10:58.904Z,97546.78
2023-02-24T02:16:26.059Z,97532.16
2023-02-24T02:21:51.557Z,97536.25
2023-02-24T02:27:19.926Z,97532.34
2023-02-24T02:32:43.947Z,97526.88
2023-02-24T02:38:06.078Z,97522.50
2023-02-24T02:43:59.135Z,97510.41
2023-02-24T02:49:13.240Z,97514.38
2023-02-24T02:54:49.684Z,97510.56
2023-02-24T03:00:21.356Z,97512.91
2023-02-24T03:05:30.017Z,97503.56
2023-02-24T03:10:34.402Z,97500.94
2023-02-24T03:15:42.160Z,97493.13
2023-02-24T03:20:58.135Z,97494.72
2023-02-24T03:26:21.211Z,97489.38
2023-02-24T03:32:06.000Z,97490.09
2023-02-24T03:37:07.963Z,97490.72
2023-02-24T03:42:22.075Z,97489.16
2023-02-24T03:47:24.714Z,97495.47
2023-02-24T03:52:47.436Z,97492.16
2023-02-24T03:57:56.173Z,97501.94
2023-02-24T04:03:38.815Z,97499.19
2023-02-24T04:09:08.936Z,97486.38
2023-02-24T04:14:48.736Z,97485.66
2023-02-24T04:19:57.805Z,97472.44
2023-02-24T04:25:05.867Z,97474.66
2023-02-24T04:30:11.954Z,97462.91
2023-02-24T04:35:16.790Z,97457.78
2023-02-24T04:40:23.563Z,97448.41
2023-02-24T04:45:28.074Z,97445.16
2023-02-24T04:50:35.877Z,97448.88
2023-02-24T04:55:40.505Z,97436.69
2023-02-24T05:00:42.399Z,97429.66
2023-02-24T05:05:57.008Z,97422.81
2023-02-24T05:11:01.073Z,97416.97
2023-02-24T05:16:09.328Z,97416.97
2023-02-24T05:21:35.397Z,97414.44
2023-02-24T05:26:41.791Z,97402.53
2023-02-24T05:31:44.137Z,97403.19
2023-02-24T05:36:46.488Z,97406.03
2023-02-24T05:41:50.012Z,97400.19
2023-02-24T05:46:58.949Z,97397.88
2023-02-24T05:52:07.626Z,97401.63
2023-02-24T05:57:12.321Z,97406.09
2023-02-24T06:02:16.386Z,97399.50
2023-02-24T06:07:22.795Z,97396.81
2023-02-24T06:12:30.557Z,97388.16
2023-02-24T06:17:32.313Z,97394.91
2023-02-24T06:22:42.452Z,97405.84
2023-02-24T06:27:44.281Z,97411.06
2023-02-24T06:32:46.189Z,97410.22
2023-02-24T06:37:48.105Z,97411.94
2023-02-24T06:42:54.102Z,97406.41
2023-02-24T06:47:55.898Z,97401.09
2023-02-24T06:53:01.090Z,97404.06
2023-02-24T06:58:05.926Z,97406.38
2023-02-24T07:03:16.632Z,97398.47
2023-02-24T07:08:21.201Z,97397.44
2023-02-24T07:13:29.970Z,97395.78
2023-02-24T07:18:31.762Z,97403.41
2023-02-24T07:23:33.536Z,97399.34
2023-02-24T07:28:35.362Z,97387.25
2023-02-24T07:33:39.023Z,97395.69
2023-02-24T07:38:45.091Z,97379.50
2023-02-24T07:43:46.832Z,97383.84
2023-02-24T07:48:48.608Z,97380.63
2023-02-24T07:53:53.580Z,97365.34
2023-02-24T07:58:59.637Z,97366.91
2023-02-24T08:04:01.540Z,97365.63
2023-02-24T08:09:17.764Z,97360.22
2023-02-24T08:14:23.696Z,97356.41
2023-02-24T08:19:33.349Z,97348.06
2023-02-24T08:24:36.002Z,97345.13
2023-02-24T08:29:58.317Z,97332.44
2023-02-24T08:35:03.061Z,97322.78
2023-02-24T08:40:29.473Z,97319.41
2023-02-24T08:45:34.018Z,97316.28
2023-02-24T08:50:39.472Z,97318.00
2023-02-24T08:55:42.839Z,97308.13
2023-02-24T09:00:54.615Z,97304.38
2023-02-24T09:06:08.995Z,97297.88
2023-02-24T09:11:15.408Z,97281.78
2023-02-24T09:16:23.638Z,97263.50
2023-02-24T09:21:44.630Z,97280.03
2023-02-24T09:26:46.576Z,97271.56
2023-02-24T09:31:55.555Z,97259.91
2023-02-24T09:42:34.953Z,97231.59
2023-02-24T09:47:51.344Z,97220.69
2023-02-24T09:53:14.054Z,97205.66
2023-02-24T09:58:49.604Z,97192.72
2023-02-24T10:04:06.270Z,97182.03
2023-02-24T10:09:37.373Z,97181.13
2023-02-24T10:14:52.942Z,97168.75
2023-02-24T10:20:02.658Z,97162.56
2023-02-24T10:25:23.474Z,97160.78
2023-02-24T10:30:47.250Z,97150.31
2023-02-24T10:35:50.281Z,97141.31
2023-02-24T10:40:59.788Z,97116.69
2023-02-24T10:46:17.458Z,97110.78
2023-02-24T10:51:22.551Z,97092.47
2023-02-24T10:56:27.699Z,97094.03
2023-02-24T11:01:43.158Z,97081.13
2023-02-24T11:06:55.762Z,97074.75
2023-02-24T11:12:38.302Z,97058.09
2023-02-24T11:17:51.966Z,97040.38
2023-02-24T11:22:56.033Z,97037.97
2023-02-24T11:27:58.084Z,97020.91
2023-02-24T11:33:02.830Z,97002.78
2023-02-24T11:38:28.126Z,96991.38
2023-02-24T11:43:34.048Z,96988.91
2023-02-24T11:48:39.806Z,96975.97
2023-02-24T11:54:06.287Z,96962.84
2023-02-24T11:59:16.365Z,96946.59
2023-02-24T12:04:29.512Z,96935.06
2023-02-24T12:10:07.060Z,96915.81
2023-02-24T12:15:16.109Z,96920.28
2023-02-24T12:20:41.605Z,96912.56
2023-02-24T12:25:55.941Z,96901.72
2023-02-24T12:31:22.054Z,96894.69
2023-02-24T12:36:34.532Z,96896.91
2023-02-24T12:42:21.786Z,96873.31
2023-02-24T12:47:46.347Z,96871.38
2023-02-24T12:52:54.147Z,96869.44
2023-02-24T12:58:16.824Z,96851.31
2023-02-24T13:03:27.310Z,96840.59
2023-02-24T13:09:23.306Z,96833.28
2023-02-24T13:14:34.914Z,96827.50
2023-02-24T13:19:41.579Z,96824.38
2023-02-24T13:24:57.137Z,96817.03
2023-02-24T13:30:04.154Z,96802.72
2023-02-24T13:35:25.945Z,96798.78
2023-02-24T13:40:28.261Z,96793.97
2023-02-24T13:45:32.724Z,96786.94
2023-02-24T13:51:02.449Z,96771.81
2023-02-24T13:56:30.349Z,96771.88
2023-02-24T14:01:44.783Z,96768.81
2023-02-24T14:06:50.172Z,96759.88
2023-02-24T14:11:58.412Z,96754.44
2023-02-24T14:17:00.181Z,96744.88
2023-02-24T14:22:01.933Z,96748.66
2023-02-24T14:27:05.129Z,96738.28
2023-02-24T14:32:21.961Z,96740.00
2023-02-24T14:37:30.996Z,96732.72
2023-02-24T14:42:32.806Z,96741.56
2023-02-24T14:47:34.906Z,96717.97
2023-02-24T14:52:45.796Z,96718.31
2023-02-24T14:57:58.286Z,96704.31
2023-02-24T15:03:25.302Z,96691.16
2023-02-24T15:08:48.938Z,96691.59
2023-02-24T15:13:55.063Z,96683.81
2023-02-24T15:19:01.131Z,96669.47
2023-02-24T15:24:29.113Z,96662.50
2023-02-24T15:29:31.660Z,96659.78
2023-02-24T15:34:36.541Z,96647.84
2023-02-24T15:39:42.459Z,96648.59
2023-02-24T15:44:56.273Z,96640.09
2023-02-24T15:49:59.051Z,96642.09
2023-02-24T15:55:02.566Z,96630.59
2023-02-24T16:00:14.851Z,96628.28
2023-02-24T16:05:16.775Z,96627.19
2023-02-24T16:10:24.869Z,96623.31
2023-02-24T16:15:34.317Z,96617.53
2023-02-24T16:20:39.750Z,96614.09
2023-02-24T16:25:44.464Z,96606.41
2023-02-24T16:30:47.388Z,96611.75
2023-02-24T16:35:53.314Z,96604.59
2023-02-24T16:40:55.870Z,96603.16
2023-02-24T16:46:04.013Z,96601.69
2023-02-24T16:51:08.127Z,96601.38
2023-02-24T16:56:10.046Z,96609.63
2023-02-24T17:01:18.884Z,96594.34
2023-02-24T17:17:27.640Z,96590.44
2023-02-24T17:22:44.675Z,96593.03
2023-02-24T17:27:46.468Z,96593.13
2023-02-24T17:32:48.503Z,96576.16
2023-02-24T17:37:50.774Z,96579.88
2023-02-24T17:42:52.606Z,96577.41
2023-02-24T17:47:54.892Z,96575.78
2023-02-24T17:52:57.702Z,96565.63
2023-02-24T17:58:00.852Z,96553.69
2023-02-24T18:03:03.625Z,96556.34
2023-02-24T18:08:05.622Z,96546.91
2023-02-24T18:13:07.422Z,96538.47
2023-02-24T18:18:09.571Z,96536.59
2023-02-24T18:23:12.564Z,96535.28
2023-02-24T18:28:14.316Z,96535.94
2023-02-24T18:33:16.202Z,96530.03
2023-02-24T18:38:35.704Z,96526.50
2023-02-24T18:43:37.727Z,96520.53
2023-02-24T18:48:41.289Z,96526.63
2023-02-24T18:53:43.859Z,96511.94
2023-02-24T18:58:46.691Z,96511.41
2023-02-24T19:03:50.367Z,96498.75
2023-02-24T19:14:23.499Z,96500.06
2023-02-24T19:19:25.269Z,96496.16
2023-02-24T19:24:27.253Z,96480.78
2023-02-24T19:29:29.048Z,96484.59
2023-02-24T19:34:30.826Z,96489.41
2023-02-24T19:39:32.629Z,96471.34
2023-02-24T19:44:59.589Z,96475.88
2023-02-24T19:50:01.454Z,96462.91
2023-02-24T19:55:03.274Z,96462.34
2023-02-24T20:00:06.998Z,96456.28
2023-02-24T20:05:13.863Z,96464.06
2023-02-24T20:10:17.777Z,96461.06
2023-02-24T20:15:19.553Z,96459.94
2023-02-24T20:20:21.467Z,96470.38
2023-02-24T20:25:55.447Z,96456.97
2023-02-24T20:30:59.533Z,96450.47
2023-02-24T20:36:05.861Z,96445.94
2023-02-24T20:41:08.282Z,96436.75
2023-02-24T20:46:18.685Z,96439.84
2023-02-24T20:51:20.485Z,96427.97
2023-02-24T20:56:22.757Z,96430.81
2023-02-24T21:01:24.991Z,96414.75
2023-02-24T21:06:28.059Z,96421.78
2023-02-24T21:11:30.391Z,96414.06
2023-02-24T21:16:34.853Z,96403.75
2023-02-24T21:21:36.610Z,96406.44
2023-02-24T21:26:38.440Z,96389.56
2023-02-24T21:31:40.358Z,96386.53
2023-02-24T21:36:43.052Z,96371.97
2023-02-24T21:41:44.983Z,96366.19
2023-02-24T21:46:50.355Z,96359.78
2023-02-24T21:51:52.413Z,96369.38
2023-02-24T21:56:54.193Z,96371.03
2023-02-24T22:01:56.120Z,96371.47
2023-02-24T22:06:57.952Z,96363.03
2023-02-24T22:11:59.753Z,96361.25
2023-02-24T22:17:01.542Z,96367.00
2023-02-24T22:22:04.129Z,96347.91
2023-02-24T22:27:05.899Z,96347.91
2023-02-24T22:32:07.807Z,96345.53
2023-02-24T22:37:09.712Z,96347.81
2023-02-24T22:42:11.732Z,96348.13
2023-02-24T22:47:13.557Z,96338.81
2023-02-24T22:52:16.904Z,96335.66
2023-02-24T22:57:18.728Z,96322.97
2023-02-24T23:02:20.608Z,96320.69
2023-02-24T23:07:22.411Z,96329.84
2023-02-24T23:12:24.393Z,96319.41
2023-02-24T23:17:26.151Z,96319.72
2023-02-24T23:22:27.899Z,96311.31
2023-02-24T23:27:29.643Z,96335.31
2023-02-24T23:32:31.512Z,96314.97
2023-02-24T23:37:33.332Z,96321.09
2023-02-24T23:42:35.089Z,96330.34
2023-02-24T23:47:37.029Z,96323.38
2023-02-24T23:52:38.776Z,96340.16
2023-02-24T23:57:40.779Z,96336.50
